createdAt,value
2022-10-16T00:01:45.933Z,15.20
2022-10-16T00:04:14.573Z,15.20
2022-10-16T00:06:46.790Z,15.10
2022-10-16T00:09:17.716Z,15.10
2022-10-16T00:11:45.784Z,15.10
2022-10-16T00:14:16.741Z,15.10
2022-10-16T00:16:45.042Z,15.10
2022-10-16T00:19:14.371Z,15.10
2022-10-16T00:21:42.297Z,15.10
2022-10-16T00:24:11.753Z,15.10
2022-10-16T00:26:40.997Z,15.10
2022-10-16T00:29:09.820Z,15.10
2022-10-16T00:31:39.102Z,15.10
2022-10-16T00:34:06.974Z,15.10
2022-10-16T00:36:34.892Z,15.00
2022-10-16T00:39:03.835Z,15.00
2022-10-16T00:41:33.259Z,15.00
2022-10-16T00:44:05.044Z,15.00
2022-10-16T00:46:44.362Z,14.90
2022-10-16T00:49:18.205Z,15.00
2022-10-16T00:51:51.049Z,15.00
2022-10-16T00:54:29.893Z,15.00
2022-10-16T00:57:02.936Z,15.00
2022-10-16T00:59:38.646Z,15.00
2022-10-16T01:02:09.387Z,15.00
2022-10-16T01:04:41.265Z,15.10
2022-10-16T01:07:26.737Z,15.10
2022-10-16T01:10:05.602Z,15.10
2022-10-16T01:12:59.104Z,15.10
2022-10-16T01:18:21.523Z,15.10
2022-10-16T01:21:15.161Z,15.10
2022-10-16T01:23:46.027Z,15.00
2022-10-16T01:26:25.627Z,15.10
2022-10-16T01:29:35.402Z,15.00
2022-10-16T01:32:11.937Z,15.00
2022-10-16T01:34:49.196Z,15.00
2022-10-16T01:37:24.743Z,15.00
2022-10-16T01:40:00.379Z,15.00
2022-10-16T01:42:35.553Z,15.00
2022-10-16T01:45:08.513Z,15.00
2022-10-16T01:47:37.581Z,15.00
2022-10-16T01:50:07.633Z,15.00
2022-10-16T01:52:39.278Z,15.00
2022-10-16T01:55:10.500Z,15.00
2022-10-16T01:57:43.330Z,15.10
2022-10-16T02:00:14.336Z,15.00
2022-10-16T02:02:46.618Z,15.00
2022-10-16T02:05:27.028Z,15.00
2022-10-16T02:07:55.375Z,15.00
2022-10-16T02:10:23.976Z,15.00
2022-10-16T02:13:04.980Z,15.10
2022-10-16T02:15:34.362Z,15.10
2022-10-16T02:18:03.814Z,15.10
2022-10-16T02:20:38.882Z,15.10
2022-10-16T02:23:09.676Z,15.10
2022-10-16T02:25:42.136Z,15.10
2022-10-16T02:28:25.989Z,15.10
2022-10-16T02:31:00.880Z,15.10
2022-10-16T02:33:30.963Z,15.10
2022-10-16T02:36:00.178Z,15.10
2022-10-16T02:38:29.031Z,15.10
2022-10-16T02:40:57.357Z,15.10
2022-10-16T02:43:26.839Z,15.10
2022-10-16T02:45:54.912Z,15.10
2022-10-16T02:48:22.768Z,15.10
2022-10-16T02:50:53.798Z,15.10
2022-10-16T02:53:25.977Z,15.10
2022-10-16T02:55:53.951Z,15.10
2022-10-16T02:58:22.090Z,15.10
2022-10-16T03:00:50.157Z,15.10
2022-10-16T03:03:18.185Z,15.10
2022-10-16T03:05:47.929Z,15.10
2022-10-16T03:08:16.158Z,15.10
2022-10-16T03:10:44.077Z,15.10
2022-10-16T03:13:11.943Z,15.10
2022-10-16T03:15:39.801Z,15.10
2022-10-16T03:18:07.690Z,15.10
2022-10-16T03:20:35.675Z,15.10
2022-10-16T03:23:04.645Z,15.10
2022-10-16T03:25:34.826Z,15.10
2022-10-16T03:28:03.099Z,15.10
2022-10-16T03:30:31.662Z,15.10
2022-10-16T03:32:59.592Z,15.00
2022-10-16T03:35:27.475Z,15.00
2022-10-16T03:37:55.603Z,15.00
2022-10-16T03:40:23.488Z,15.10
2022-10-16T03:42:51.474Z,15.00
2022-10-16T03:45:19.430Z,15.00
2022-10-16T03:47:47.313Z,15.00
2022-10-16T03:50:15.267Z,15.00
2022-10-16T03:52:43.150Z,15.00
2022-10-16T03:55:11.287Z,14.90
2022-10-16T03:57:39.166Z,14.90
2022-10-16T04:00:08.104Z,14.90
2022-10-16T04:02:40.256Z,14.90
2022-10-16T04:05:08.872Z,14.90
2022-10-16T04:07:36.922Z,14.90
2022-10-16T04:10:07.971Z,14.90
2022-10-16T04:12:35.874Z,14.90
2022-10-16T04:15:03.888Z,14.90
2022-10-16T04:17:31.995Z,14.90
2022-10-16T04:19:59.854Z,14.90
2022-10-16T04:25:00.555Z,15.00
2022-10-16T04:27:29.081Z,15.00
2022-10-16T04:29:57.115Z,15.00
2022-10-16T04:32:24.987Z,15.00
2022-10-16T04:34:52.899Z,15.00
2022-10-16T04:37:25.365Z,15.00
2022-10-16T04:39:57.889Z,15.00
2022-10-16T04:42:30.095Z,15.00
2022-10-16T04:44:58.012Z,15.00
2022-10-16T04:47:26.019Z,15.00
2022-10-16T04:49:54.096Z,15.00
2022-10-16T04:52:23.686Z,15.00
2022-10-16T04:54:52.500Z,15.00
2022-10-16T04:57:20.522Z,14.90
2022-10-16T04:59:49.390Z,14.90
2022-10-16T05:02:17.366Z,15.00
2022-10-16T05:04:45.269Z,14.90
2022-10-16T05:07:13.145Z,14.90
2022-10-16T05:09:41.025Z,14.90
2022-10-16T05:12:09.033Z,14.90
2022-10-16T05:14:36.929Z,14.90
2022-10-16T05:17:05.031Z,14.90
2022-10-16T05:19:32.930Z,14.80
2022-10-16T05:22:01.214Z,14.80
2022-10-16T05:24:29.407Z,14.70
2022-10-16T05:26:57.405Z,14.70
2022-10-16T05:29:27.705Z,14.70
2022-10-16T05:31:55.633Z,14.60
2022-10-16T05:34:23.702Z,14.60
2022-10-16T05:36:52.205Z,14.60
2022-10-16T05:39:20.183Z,14.60
2022-10-16T05:41:48.790Z,14.60
2022-10-16T05:44:16.774Z,14.60
2022-10-16T05:46:44.667Z,14.70
2022-10-16T05:49:12.534Z,14.70
2022-10-16T05:51:40.548Z,14.80
2022-10-16T05:54:08.405Z,14.80
2022-10-16T05:56:36.287Z,14.80
2022-10-16T05:59:06.101Z,14.80
2022-10-16T06:01:34.753Z,14.80
2022-10-16T06:04:02.989Z,14.80
2022-10-16T06:06:31.832Z,14.80
2022-10-16T06:09:01.794Z,14.90
2022-10-16T06:11:32.840Z,14.90
2022-10-16T06:14:04.687Z,14.90
2022-10-16T06:16:32.627Z,14.90
2022-10-16T06:19:01.966Z,14.90
2022-10-16T06:21:31.601Z,14.90
2022-10-16T06:23:59.970Z,14.90
2022-10-16T06:26:30.067Z,14.90
2022-10-16T06:29:02.757Z,14.90
2022-10-16T06:31:32.982Z,15.00
2022-10-16T06:34:01.890Z,15.00
2022-10-16T06:36:30.099Z,15.00
2022-10-16T06:38:59.698Z,15.00
2022-10-16T06:41:27.588Z,15.10
2022-10-16T06:43:55.531Z,15.20
2022-10-16T06:46:26.120Z,15.20
2022-10-16T06:48:55.342Z,15.20
2022-10-16T06:51:25.245Z,15.20
2022-10-16T06:54:04.018Z,15.20
2022-10-16T06:56:33.729Z,15.30
2022-10-16T06:59:02.303Z,15.30
2022-10-16T07:01:31.399Z,15.30
2022-10-16T07:04:00.154Z,15.20
2022-10-16T07:06:29.361Z,15.30
2022-10-16T07:08:57.440Z,15.30
2022-10-16T07:11:26.499Z,15.30
2022-10-16T07:13:55.823Z,15.20
2022-10-16T07:16:29.799Z,15.30
2022-10-16T07:19:02.294Z,15.30
2022-10-16T07:21:41.059Z,15.30
2022-10-16T07:24:17.088Z,15.30
2022-10-16T07:26:46.959Z,15.40
2022-10-16T07:29:21.102Z,15.40
2022-10-16T07:31:50.118Z,15.50
2022-10-16T07:34:19.989Z,15.50
2022-10-16T07:36:52.150Z,15.50
2022-10-16T07:39:20.748Z,15.50
2022-10-16T07:41:48.665Z,15.50
2022-10-16T07:44:17.927Z,15.50
2022-10-16T07:46:45.775Z,15.50
2022-10-16T07:49:13.754Z,15.60
2022-10-16T07:51:41.729Z,15.60
2022-10-16T07:54:11.494Z,15.60
2022-10-16T07:56:42.909Z,15.70
2022-10-16T07:59:15.037Z,15.80
2022-10-16T08:01:44.523Z,15.90
2022-10-16T08:04:13.240Z,15.90
2022-10-16T08:06:42.741Z,16.00
2022-10-16T08:09:13.471Z,16.00
2022-10-16T08:11:45.511Z,16.00
2022-10-16T08:14:24.272Z,16.00
2022-10-16T08:16:58.683Z,16.00
2022-10-16T08:19:26.754Z,16.00
2022-10-16T08:21:57.131Z,16.10
2022-10-16T08:24:25.108Z,16.10
2022-10-16T08:26:56.415Z,16.20
2022-10-16T08:29:26.742Z,16.30
2022-10-16T08:31:54.591Z,16.40
2022-10-16T08:34:22.764Z,16.60
2022-10-16T08:36:50.653Z,16.80
2022-10-16T08:39:18.484Z,17.20
2022-10-16T08:42:21.703Z,17.50
2022-10-16T08:45:11.214Z,17.90
2022-10-16T08:47:50.436Z,18.10
2022-10-16T08:50:29.909Z,18.00
2022-10-16T08:52:59.211Z,17.90
2022-10-16T08:55:31.299Z,17.70
2022-10-16T08:57:59.273Z,17.80
2022-10-16T09:00:28.601Z,18.10
2022-10-16T09:03:09.336Z,18.20
2022-10-16T09:05:39.917Z,18.30
2022-10-16T09:08:29.875Z,18.30
2022-10-16T09:11:32.911Z,18.30
2022-10-16T09:14:29.155Z,18.20
2022-10-16T09:20:41.391Z,18.00
2022-10-16T09:23:17.333Z,17.90
2022-10-16T09:25:52.444Z,17.80
2022-10-16T09:28:21.296Z,17.80
2022-10-16T09:30:52.675Z,17.80
2022-10-16T09:33:21.541Z,17.70
2022-10-16T09:35:55.792Z,17.60
2022-10-16T09:38:44.828Z,17.60
2022-10-16T09:41:24.149Z,17.60
2022-10-16T09:44:03.875Z,17.50
2022-10-16T09:46:42.351Z,17.40
2022-10-16T09:49:29.075Z,17.50
2022-10-16T09:52:15.485Z,17.60
2022-10-16T09:55:00.620Z,17.60
2022-10-16T09:57:29.416Z,17.60
2022-10-16T09:59:59.901Z,17.60
2022-10-16T10:02:37.664Z,17.60
2022-10-16T10:05:07.705Z,17.70
2022-10-16T10:07:45.897Z,17.70
2022-10-16T10:10:28.110Z,17.80
2022-10-16T10:12:57.726Z,17.90
2022-10-16T10:15:26.903Z,18.10
2022-10-16T10:17:57.948Z,18.20
2022-10-16T10:20:36.398Z,18.40
2022-10-16T10:23:24.489Z,18.60
2022-10-16T10:26:22.876Z,18.70
2022-10-16T10:29:10.172Z,18.70
2022-10-16T10:31:54.363Z,18.70
2022-10-16T10:34:46.300Z,18.70
2022-10-16T10:37:28.625Z,18.80
2022-10-16T10:40:10.561Z,18.90
2022-10-16T10:42:45.846Z,18.90
2022-10-16T10:45:28.720Z,18.90
2022-10-16T10:48:18.703Z,18.90
2022-10-16T10:51:19.890Z,18.90
2022-10-16T10:54:04.165Z,19.00
2022-10-16T10:57:07.611Z,19.00
2022-10-16T10:59:41.376Z,19.10
2022-10-16T11:02:20.481Z,19.20
2022-10-16T11:05:17.574Z,19.20
2022-10-16T11:08:24.113Z,19.30
2022-10-16T11:11:00.377Z,19.30
2022-10-16T11:14:00.607Z,19.30
2022-10-16T11:16:37.618Z,19.30
2022-10-16T11:19:20.248Z,19.30
2022-10-16T11:22:12.590Z,19.40
2022-10-16T11:27:56.416Z,19.50
2022-10-16T11:30:30.755Z,19.60
2022-10-16T11:33:10.936Z,19.80
2022-10-16T11:36:16.434Z,19.90
2022-10-16T11:38:58.338Z,20.00
2022-10-16T11:41:29.467Z,20.30
2022-10-16T11:44:20.611Z,20.60
2022-10-16T11:47:28.613Z,21.10
2022-10-16T11:50:25.118Z,21.50
2022-10-16T11:53:18.087Z,21.70
2022-10-16T11:55:47.740Z,21.70
2022-10-16T11:58:24.943Z,21.80
2022-10-16T12:01:07.450Z,22.10
2022-10-16T12:03:48.083Z,22.70
2022-10-16T12:06:48.294Z,23.10
2022-10-16T12:09:37.782Z,23.40
2022-10-16T12:12:06.432Z,23.70
2022-10-16T12:14:36.879Z,24.20
2022-10-16T12:17:22.902Z,24.80
2022-10-16T12:20:19.269Z,25.20
2022-10-16T12:23:14.639Z,25.70
2022-10-16T12:25:48.570Z,25.40
2022-10-16T12:28:22.932Z,25.30
2022-10-16T12:31:03.331Z,25.40
2022-10-16T12:33:44.005Z,25.70
2022-10-16T12:36:36.436Z,26.20
2022-10-16T12:39:04.926Z,26.30
2022-10-16T12:41:35.223Z,26.60
2022-10-16T12:44:03.815Z,26.20
2022-10-16T12:46:31.670Z,25.50
2022-10-16T12:49:30.067Z,24.90
2022-10-16T12:51:58.526Z,24.20
2022-10-16T12:54:29.537Z,23.90
2022-10-16T12:56:57.822Z,23.70
2022-10-16T12:59:57.876Z,23.30
2022-10-16T13:02:58.979Z,23.00
2022-10-16T13:05:27.074Z,23.00
2022-10-16T13:08:22.736Z,22.90
2022-10-16T13:11:13.629Z,22.90
2022-10-16T13:14:12.356Z,23.00
2022-10-16T13:17:00.906Z,23.20
2022-10-16T13:19:56.445Z,23.60
2022-10-16T13:22:57.855Z,24.10
2022-10-16T13:25:50.690Z,25.00
2022-10-16T13:28:21.975Z,25.10
2022-10-16T13:31:01.220Z,25.30
2022-10-16T13:33:35.739Z,25.60
2022-10-16T13:36:04.707Z,25.60
2022-10-16T13:38:35.261Z,25.10
2022-10-16T13:41:17.924Z,24.50
2022-10-16T13:43:55.104Z,24.20
2022-10-16T13:46:25.549Z,24.30
2022-10-16T13:49:04.984Z,24.90
2022-10-16T13:51:34.479Z,25.70
2022-10-16T13:54:02.445Z,26.50
2022-10-16T13:56:33.027Z,27.30
2022-10-16T13:59:23.951Z,28.20
2022-10-16T14:01:53.434Z,28.30
2022-10-16T14:04:21.724Z,28.70
2022-10-16T14:06:53.056Z,29.50
2022-10-16T14:09:26.975Z,30.10
2022-10-16T14:12:05.591Z,30.40
2022-10-16T14:14:48.612Z,31.00
2022-10-16T14:17:29.027Z,31.70
2022-10-16T14:20:02.740Z,32.00
2022-10-16T14:22:44.650Z,32.10
2022-10-16T14:25:21.767Z,32.30
2022-10-16T14:28:03.640Z,32.20
2022-10-16T14:30:33.620Z,32.30
2022-10-16T14:33:22.028Z,31.90
2022-10-16T14:36:01.706Z,31.40
2022-10-16T14:38:29.899Z,30.60
2022-10-16T14:41:00.527Z,29.70
2022-10-16T14:43:49.979Z,28.70
2022-10-16T14:46:34.204Z,27.70
2022-10-16T14:49:17.378Z,26.70
2022-10-16T14:51:46.971Z,25.80
2022-10-16T14:54:19.743Z,25.00
2022-10-16T14:56:53.009Z,24.30
2022-10-16T14:59:33.609Z,23.40
2022-10-16T15:02:02.862Z,22.80
2022-10-16T15:04:31.015Z,22.50
2022-10-16T15:06:58.971Z,22.20
2022-10-16T15:09:26.810Z,22.00
2022-10-16T15:11:55.144Z,21.90
2022-10-16T15:14:23.033Z,21.70
2022-10-16T15:16:50.920Z,21.50
2022-10-16T15:19:18.762Z,21.30
2022-10-16T15:21:47.139Z,21.00
2022-10-16T15:24:23.287Z,20.70
2022-10-16T15:26:51.450Z,20.50
2022-10-16T15:29:19.370Z,20.60
2022-10-16T15:31:49.488Z,20.60
2022-10-16T15:34:17.427Z,20.30
2022-10-16T15:36:45.362Z,20.10
2022-10-16T15:39:18.852Z,20.10
2022-10-16T15:41:53.178Z,20.00
2022-10-16T15:44:22.067Z,19.90
2022-10-16T15:46:49.929Z,19.80
2022-10-16T15:49:17.935Z,19.80
2022-10-16T15:51:46.576Z,19.90
2022-10-16T15:54:14.487Z,19.80
2022-10-16T15:56:42.331Z,19.80
2022-10-16T15:59:10.159Z,19.60
2022-10-16T16:01:38.672Z,19.50
2022-10-16T16:04:15.409Z,19.50
2022-10-16T16:06:48.132Z,19.50
2022-10-16T16:09:16.685Z,19.40
2022-10-16T16:11:44.839Z,19.30
2022-10-16T16:14:15.153Z,19.20
2022-10-16T16:16:44.695Z,19.30
2022-10-16T16:19:12.807Z,19.30
2022-10-16T16:21:41.959Z,19.20
2022-10-16T16:24:10.233Z,19.20
2022-10-16T16:26:41.393Z,19.20
2022-10-16T16:29:13.275Z,19.10
2022-10-16T16:31:46.387Z,19.00
2022-10-16T16:34:14.931Z,19.00
2022-10-16T16:36:43.030Z,19.00
2022-10-16T16:39:11.006Z,18.90
2022-10-16T16:41:38.984Z,18.80
2022-10-16T16:44:09.662Z,18.70
2022-10-16T16:46:37.681Z,18.60
2022-10-16T16:49:05.918Z,18.50
2022-10-16T16:51:37.069Z,18.50
2022-10-16T16:54:09.255Z,18.40
2022-10-16T16:56:37.676Z,18.30
2022-10-16T16:59:06.116Z,18.40
2022-10-16T17:01:34.102Z,18.40
2022-10-16T17:04:03.420Z,18.30
2022-10-16T17:06:31.652Z,18.40
2022-10-16T17:09:00.859Z,18.40
2022-10-16T17:11:29.671Z,18.40
2022-10-16T17:13:59.590Z,18.20
2022-10-16T17:16:30.341Z,18.30
2022-10-16T17:19:02.405Z,18.20
2022-10-16T17:21:33.968Z,18.20
2022-10-16T17:24:02.571Z,18.30
2022-10-16T17:26:31.207Z,18.20
2022-10-16T17:29:01.325Z,18.20
2022-10-16T17:31:31.893Z,18.20
2022-10-16T17:34:01.184Z,18.20
2022-10-16T17:36:34.797Z,18.20
2022-10-16T17:39:14.223Z,18.20
2022-10-16T17:41:42.221Z,18.20
2022-10-16T17:44:10.099Z,18.20
2022-10-16T17:46:40.967Z,18.20
2022-10-16T17:49:10.366Z,18.20
2022-10-16T17:51:38.567Z,18.10
2022-10-16T17:54:07.563Z,18.00
2022-10-16T17:56:35.917Z,18.10
2022-10-16T17:59:04.514Z,18.00
2022-10-16T18:01:35.465Z,17.90
2022-10-16T18:04:08.300Z,17.90
2022-10-16T18:06:37.136Z,17.90
2022-10-16T18:09:06.316Z,17.90
2022-10-16T18:11:36.855Z,17.90
2022-10-16T18:14:05.823Z,17.80
2022-10-16T18:16:34.421Z,17.90
2022-10-16T18:19:02.525Z,17.90
2022-10-16T18:21:30.764Z,17.90
2022-10-16T18:24:02.413Z,17.80
2022-10-16T18:26:30.598Z,17.80
2022-10-16T18:28:59.308Z,17.80
2022-10-16T18:31:27.803Z,17.80
2022-10-16T18:33:56.850Z,17.80
2022-10-16T18:36:38.590Z,17.80
2022-10-16T18:39:11.890Z,17.70
2022-10-16T18:41:45.827Z,17.70
2022-10-16T18:44:14.904Z,17.50
2022-10-16T18:46:43.227Z,17.50
2022-10-16T18:49:11.438Z,17.40
2022-10-16T18:51:41.776Z,17.40
2022-10-16T18:54:11.797Z,17.40
2022-10-16T18:56:40.272Z,17.40
2022-10-16T18:59:09.222Z,17.30
2022-10-16T19:01:39.790Z,17.10
2022-10-16T19:04:11.059Z,17.10
2022-10-16T19:06:48.546Z,17.00
2022-10-16T19:09:18.616Z,17.00
2022-10-16T19:11:47.105Z,17.00
2022-10-16T19:14:16.711Z,17.00
2022-10-16T19:16:45.193Z,16.90
2022-10-16T19:19:16.544Z,16.90
2022-10-16T19:21:45.768Z,16.70
2022-10-16T19:24:16.254Z,16.60
2022-10-16T19:26:44.593Z,16.60
2022-10-16T19:29:13.268Z,16.50
2022-10-16T19:31:44.834Z,16.30
2022-10-16T19:34:12.931Z,16.10
2022-10-16T19:36:42.581Z,16.00
2022-10-16T19:41:52.568Z,16.00
2022-10-16T19:44:21.029Z,16.00
2022-10-16T19:46:50.103Z,15.90
2022-10-16T19:49:22.005Z,15.80
2022-10-16T19:51:52.771Z,15.70
2022-10-16T19:54:21.260Z,15.70
2022-10-16T19:56:49.207Z,15.50
2022-10-16T19:59:20.214Z,15.40
2022-10-16T20:01:48.627Z,15.30
2022-10-16T20:04:17.594Z,15.40
2022-10-16T20:06:46.175Z,15.40
2022-10-16T20:09:14.417Z,15.40
2022-10-16T20:11:43.846Z,15.30
2022-10-16T20:14:12.187Z,15.30
2022-10-16T20:16:45.186Z,15.20
2022-10-16T20:19:13.116Z,15.20
2022-10-16T20:21:41.272Z,15.10
2022-10-16T20:24:12.441Z,15.00
2022-10-16T20:26:40.641Z,15.00
2022-10-16T20:29:08.752Z,15.00
2022-10-16T20:31:37.351Z,15.00
2022-10-16T20:34:08.465Z,15.00
2022-10-16T20:36:41.676Z,15.00
2022-10-16T20:39:14.911Z,15.00
2022-10-16T20:41:42.913Z,14.90
2022-10-16T20:44:10.976Z,14.90
2022-10-16T20:46:38.942Z,14.80
2022-10-16T20:49:11.132Z,14.70
2022-10-16T20:51:39.534Z,14.70
2022-10-16T20:54:08.791Z,14.70
2022-10-16T20:56:38.522Z,14.60
2022-10-16T20:59:06.969Z,14.60
2022-10-16T21:01:37.412Z,14.50
2022-10-16T21:04:09.553Z,14.50
2022-10-16T21:06:40.186Z,14.60
2022-10-16T21:09:08.557Z,14.60
2022-10-16T21:11:38.151Z,14.50
2022-10-16T21:14:07.924Z,14.50
2022-10-16T21:16:36.310Z,14.50
2022-10-16T21:19:04.900Z,14.40
2022-10-16T21:21:36.818Z,14.40
2022-10-16T21:24:05.505Z,14.40
2022-10-16T21:26:33.415Z,14.30
2022-10-16T21:29:05.050Z,14.10
2022-10-16T21:31:33.960Z,14.00
2022-10-16T21:34:02.228Z,14.10
2022-10-16T21:36:37.617Z,14.10
2022-10-16T21:39:15.881Z,14.00
2022-10-16T21:41:45.750Z,14.10
2022-10-16T21:44:13.745Z,14.10
2022-10-16T21:46:43.762Z,14.10
2022-10-16T21:49:15.632Z,14.20
2022-10-16T21:51:46.545Z,14.20
2022-10-16T21:54:17.964Z,14.10
2022-10-16T21:56:47.429Z,14.10
2022-10-16T21:59:15.809Z,14.10
2022-10-16T22:01:44.450Z,14.10
2022-10-16T22:04:14.092Z,14.00
2022-10-16T22:06:42.281Z,14.00
2022-10-16T22:09:15.112Z,13.90
2022-10-16T22:11:45.861Z,13.90
2022-10-16T22:14:16.734Z,13.90
2022-10-16T22:16:46.263Z,13.90
2022-10-16T22:19:16.187Z,13.90
2022-10-16T22:21:44.994Z,13.90
2022-10-16T22:24:13.112Z,13.80
2022-10-16T22:26:41.757Z,13.80
2022-10-16T22:29:17.732Z,13.70
2022-10-16T22:31:51.781Z,13.60
2022-10-16T22:34:22.841Z,13.60
2022-10-16T22:36:51.904Z,13.60
2022-10-16T22:39:20.879Z,13.50
2022-10-16T22:41:48.738Z,13.60
2022-10-16T22:44:16.589Z,13.60
2022-10-16T22:46:44.459Z,13.60
2022-10-16T22:49:12.442Z,13.60
2022-10-16T22:51:40.405Z,13.60
2022-10-16T22:54:08.275Z,13.50
2022-10-16T22:56:36.176Z,13.50
2022-10-16T22:59:04.024Z,13.50
2022-10-16T23:01:42.915Z,13.50
2022-10-16T23:04:10.876Z,13.50
2022-10-16T23:06:38.786Z,13.40
2022-10-16T23:09:06.764Z,13.40
2022-10-16T23:11:34.763Z,13.40
2022-10-16T23:14:02.757Z,13.30
2022-10-16T23:16:30.848Z,13.30
2022-10-16T23:18:59.706Z,13.30
2022-10-16T23:21:27.882Z,13.30
2022-10-16T23:23:56.177Z,13.30
2022-10-16T23:26:27.130Z,13.30
2022-10-16T23:28:58.090Z,13.30
2022-10-16T23:31:27.424Z,13.30
2022-10-16T23:33:59.084Z,13.30
2022-10-16T23:36:27.835Z,13.30
2022-10-16T23:38:56.154Z,13.30
2022-10-16T23:41:24.251Z,13.30
2022-10-16T23:43:52.905Z,13.20
2022-10-16T23:46:20.936Z,13.10
2022-10-16T23:48:48.961Z,13.00
2022-10-16T23:51:16.916Z,13.00
2022-10-16T23:53:44.865Z,13.00
2022-10-16T23:56:13.461Z,13.00
2022-10-16T23:58:41.618Z,13.10
